»·PEaware :: WJA238 CYEG-CYYC

WJA238 :: CYEG-CYYC

FLIGHT INFORMATION

Flight Status: Arrived
Operator:
Westjet Airlines
More flights by this operator :: More flights under this callsign
Pilot: Jamyson D. (13674)
Aircraft: BOEING 737-800
(B738)
More flights by this aircraft type
Origin: CYEG Edmonton Intl
Canada
Destination: CYYC Calgary Intl
Canada
More flights between these airports :: More routes between these airports
Route: OLIMI Q814 ADVOX ADVOX6
File this flight plan on PilotEdge
Remarks:
Altitude:
(Current/Filed)
23,000ft
Speed:
(Current/Filed)
407kts
Departed: 20-Oct-17 01:27 PM
Arrived: 20-Oct-17 02:03 PM
Distance/Time
Traveled:
133nm/0:36
Distance/Time
To Go:
Arrived

Flight Plot

Page will automatically refresh every two minutes.

Flight plan parsing failed; only flown route is shown


Map Options




Map Legend


Flown Route
Filed Route
Departure Airport
Arrival Airport
Navaid (VOR, NDB)
Fix

Horizontal Profiles

Position Reports

Time Latitude Longitude Heading Altitude Ground
Speed
20-Oct-17 13:09 53.303883 -113.580746 44 2340ft 0kts
20-Oct-17 13:10 53.303883 -113.580746 44 2340ft 0kts
20-Oct-17 13:11 53.303883 -113.580746 44 2340ft 0kts
20-Oct-17 13:12 53.303883 -113.580746 44 2340ft 0kts
20-Oct-17 13:13 53.303883 -113.580746 44 2340ft 0kts
20-Oct-17 13:14 53.303883 -113.580746 44 2340ft 0kts
20-Oct-17 13:15 53.303883 -113.580746 44 2340ft 0kts
20-Oct-17 13:16 53.303883 -113.580746 44 2340ft 0kts
20-Oct-17 13:17 53.303883 -113.580743 43 2340ft 0kts
20-Oct-17 13:18 53.303770 -113.580937 44 2340ft 2kts
20-Oct-17 13:19 53.303416 -113.581720 75 2343ft 2kts
20-Oct-17 13:20 53.303548 -113.582655 131 2341ft 1kts
20-Oct-17 13:21 53.303576 -113.582705 136 2341ft 0kts
20-Oct-17 13:22 53.303567 -113.582691 135 2341ft 0kts
20-Oct-17 13:23 53.303067 -113.581834 132 2343ft 5kts
20-Oct-17 13:24 53.301948 -113.579966 135 2347ft 8kts
20-Oct-17 13:25 53.299714 -113.579166 214 2348ft 8kts
20-Oct-17 13:26 53.298347 -113.577766 132 2351ft 8kts
20-Oct-17 13:27 53.296004 -113.573811 134 2359ft 12kts
20-Oct-17 13:28 53.293188 -113.569099 134 2363ft 15kts
20-Oct-17 13:29 53.289513 -113.562973 142 2363ft 19kts
20-Oct-17 13:30 53.287318 -113.564003 300 2363ft 6kts
20-Oct-17 13:31 53.287661 -113.564643 315 2362ft 0kts
20-Oct-17 13:32 53.289004 -113.566820 313 2366ft 53kts
20-Oct-17 13:33 53.314906 -113.611009 313 3328ft 174kts
20-Oct-17 13:34 53.351743 -113.674531 314 5324ft 218kts
20-Oct-17 13:35 53.401480 -113.761514 313 7928ft 277kts
20-Oct-17 13:36 53.393054 -113.868525 207 11181ft 312kts
20-Oct-17 13:37 53.306282 -113.851689 172 14875ft 326kts
20-Oct-17 13:38 53.219163 -113.868077 195 18435ft 322kts
20-Oct-17 13:39 53.134002 -113.915363 199 21649ft 328kts
20-Oct-17 13:40 53.045793 -113.968607 200 23004ft 360kts
20-Oct-17 13:41 52.949429 -114.027289 200 22986ft 372kts
20-Oct-17 13:42 52.854394 -114.085150 200 22998ft 372kts
20-Oct-17 13:43 52.756893 -114.140718 198 22997ft 372kts
20-Oct-17 13:44 52.658864 -114.193415 199 22995ft 372kts
20-Oct-17 13:45 52.560562 -114.246095 198 22994ft 372kts
20-Oct-17 13:46 52.462340 -114.298755 199 22993ft 373kts
20-Oct-17 13:47 52.363944 -114.351633 198 22947ft 373kts
20-Oct-17 13:48 52.265671 -114.404232 199 22760ft 374kts
20-Oct-17 13:49 52.167668 -114.457003 199 22847ft 374kts
20-Oct-17 13:50 52.068929 -114.509854 199 22648ft 375kts
20-Oct-17 13:51 51.969838 -114.562061 198 22518ft 375kts
20-Oct-17 13:52 51.871523 -114.613310 198 22720ft 375kts
20-Oct-17 13:53 51.777815 -114.662324 198 22863ft 329kts
20-Oct-17 13:54 51.689974 -114.696244 176 21785ft 339kts
20-Oct-17 13:55 51.608012 -114.621923 149 19856ft 338kts
20-Oct-17 13:56 51.532571 -114.534562 147 18184ft 334kts
20-Oct-17 13:57 51.459736 -114.443384 139 17030ft 337kts
20-Oct-17 13:58 51.394833 -114.341073 139 15390ft 328kts
20-Oct-17 13:59 51.330386 -114.240463 139 13602ft 323kts
20-Oct-17 14:00 51.258898 -114.165005 176 11903ft 314kts
20-Oct-17 14:01 51.172852 -114.163558 183 10096ft 305kts
20-Oct-17 14:02 51.089723 -114.163495 183 8548ft 290kts
20-Oct-17 14:03 51.020348 -114.135578 130 7214ft 267kts
20-Oct-17 14:04 50.981068 -114.038317 94 6333ft 254kts
20-Oct-17 14:05 51.019835 -113.995419 319 4969ft 226kts
20-Oct-17 14:06 51.066767 -114.021260 358 4373ft 163kts
20-Oct-17 14:07 51.104557 -114.021464 359 3565ft 75kts
20-Oct-17 14:08 51.112910 -114.021427 1 3565ft 17kts
20-Oct-17 14:09 51.116321 -114.020470 27 3565ft 13kts

Navigation Log

Ident Type
Flight plan parsing failed, navigation log unavailable